sensor_id;sensor_type;location;lat;lon;timestamp;P1;durP1;ratioP1;P2;durP2;ratioP2
64500;SDS011;50874;24.150;-110.320;2023-08-31T00:01:15;6.28;;;3.10;;
64500;SDS011;50874;24.150;-110.320;2023-08-31T00:03:41;11.05;;;3.97;;
64500;SDS011;50874;24.150;-110.320;2023-08-31T00:06:09;6.10;;;3.63;;
64500;SDS011;50874;24.150;-110.320;2023-08-31T00:08:36;8.85;;;3.72;;
64500;SDS011;50874;24.150;-110.320;2023-08-31T00:11:02;8.95;;;3.72;;
64500;SDS011;50874;24.150;-110.320;2023-08-31T00:13:29;5.90;;;2.90;;
64500;SDS011;50874;24.150;-110.320;2023-08-31T00:15:55;8.82;;;3.40;;
64500;SDS011;50874;24.150;-110.320;2023-08-31T00:18:23;6.70;;;3.95;;
64500;SDS011;50874;24.150;-110.320;2023-08-31T00:20:51;6.25;;;3.72;;
64500;SDS011;50874;24.150;-110.320;2023-08-31T00:23:18;10.95;;;3.90;;
64500;SDS011;50874;24.150;-110.320;2023-08-31T00:25:45;10.93;;;3.17;;
64500;SDS011;50874;24.150;-110.320;2023-08-31T00:28:13;7.35;;;3.67;;
64500;SDS011;50874;24.150;-110.320;2023-08-31T00:30:41;7.25;;;3.47;;
64500;SDS011;50874;24.150;-110.320;2023-08-31T00:33:10;7.60;;;3.50;;
64500;SDS011;50874;24.150;-110.320;2023-08-31T00:35:37;8.50;;;3.63;;
64500;SDS011;50874;24.150;-110.320;2023-08-31T00:38:07;10.77;;;4.03;;
64500;SDS011;50874;24.150;-110.320;2023-08-31T00:40:37;7.72;;;3.45;;
64500;SDS011;50874;24.150;-110.320;2023-08-31T00:43:07;8.10;;;3.75;;
64500;SDS011;50874;24.150;-110.320;2023-08-31T00:45:34;8.65;;;3.33;;
64500;SDS011;50874;24.150;-110.320;2023-08-31T00:48:01;9.20;;;4.25;;
64500;SDS011;50874;24.150;-110.320;2023-08-31T00:50:28;5.90;;;3.38;;
64500;SDS011;50874;24.150;-110.320;2023-08-31T00:52:55;8.10;;;3.70;;
64500;SDS011;50874;24.150;-110.320;2023-08-31T00:55:22;11.82;;;4.35;;
64500;SDS011;50874;24.150;-110.320;2023-08-31T00:57:49;14.27;;;4.50;;
64500;SDS011;50874;24.150;-110.320;2023-08-31T01:00:15;7.43;;;3.60;;
64500;SDS011;50874;24.150;-110.320;2023-08-31T01:08:15;7.63;;;4.03;;
64500;SDS011;50874;24.150;-110.320;2023-08-31T01:10:58;8.73;;;4.47;;
64500;SDS011;50874;24.150;-110.320;2023-08-31T01:13:30;8.35;;;4.28;;
64500;SDS011;50874;24.150;-110.320;2023-08-31T01:15:59;9.10;;;3.53;;
64500;SDS011;50874;24.150;-110.320;2023-08-31T01:18:33;9.80;;;4.47;;
64500;SDS011;50874;24.150;-110.320;2023-08-31T01:23:49;9.70;;;3.83;;
64500;SDS011;50874;24.150;-110.320;2023-08-31T01:26:20;15.10;;;4.50;;
64500;SDS011;50874;24.150;-110.320;2023-08-31T01:28:48;18.67;;;4.05;;
64500;SDS011;50874;24.150;-110.320;2023-08-31T01:31:16;11.55;;;3.95;;
64500;SDS011;50874;24.150;-110.320;2023-08-31T01:33:43;12.05;;;4.72;;
64500;SDS011;50874;24.150;-110.320;2023-08-31T01:36:20;8.43;;;3.85;;
64500;SDS011;50874;24.150;-110.320;2023-08-31T01:38:53;11.70;;;5.05;;
64500;SDS011;50874;24.150;-110.320;2023-08-31T01:41:30;6.57;;;3.90;;
64500;SDS011;50874;24.150;-110.320;2023-08-31T01:44:00;8.82;;;4.30;;
64500;SDS011;50874;24.150;-110.320;2023-08-31T01:46:27;13.35;;;4.65;;
64500;SDS011;50874;24.150;-110.320;2023-08-31T01:48:56;8.43;;;4.30;;
64500;SDS011;50874;24.150;-110.320;2023-08-31T01:51:22;10.15;;;3.95;;
64500;SDS011;50874;24.150;-110.320;2023-08-31T01:53:49;8.68;;;4.30;;
64500;SDS011;50874;24.150;-110.320;2023-08-31T01:56:15;6.78;;;3.78;;
64500;SDS011;50874;24.150;-110.320;2023-08-31T01:58:42;12.13;;;4.03;;
64500;SDS011;50874;24.150;-110.320;2023-08-31T02:01:08;9.73;;;3.90;;
64500;SDS011;50874;24.150;-110.320;2023-08-31T02:03:35;8.25;;;3.67;;
64500;SDS011;50874;24.150;-110.320;2023-08-31T02:06:01;14.20;;;4.00;;
64500;SDS011;50874;24.150;-110.320;2023-08-31T02:08:29;10.23;;;4.28;;
64500;SDS011;50874;24.150;-110.320;2023-08-31T02:10:55;11.13;;;3.85;;
64500;SDS011;50874;24.150;-110.320;2023-08-31T02:13:22;13.60;;;3.85;;
64500;SDS011;50874;24.150;-110.320;2023-08-31T02:15:52;8.55;;;3.92;;
64500;SDS011;50874;24.150;-110.320;2023-08-31T02:18:19;11.30;;;4.30;;
64500;SDS011;50874;24.150;-110.320;2023-08-31T02:20:45;14.18;;;4.97;;
64500;SDS011;50874;24.150;-110.320;2023-08-31T02:23:12;11.18;;;4.35;;
64500;SDS011;50874;24.150;-110.320;2023-08-31T02:25:38;13.50;;;4.20;;
64500;SDS011;50874;24.150;-110.320;2023-08-31T02:28:05;9.13;;;4.03;;
64500;SDS011;50874;24.150;-110.320;2023-08-31T02:30:31;9.73;;;4.22;;
64500;SDS011;50874;24.150;-110.320;2023-08-31T02:32:58;6.90;;;3.78;;
64500;SDS011;50874;24.150;-110.320;2023-08-31T02:35:24;8.63;;;3.78;;
64500;SDS011;50874;24.150;-110.320;2023-08-31T02:37:51;7.05;;;3.50;;
64500;SDS011;50874;24.150;-110.320;2023-08-31T02:40:17;7.57;;;3.50;;
64500;SDS011;50874;24.150;-110.320;2023-08-31T02:42:46;12.85;;;4.07;;
64500;SDS011;50874;24.150;-110.320;2023-08-31T02:45:15;10.00;;;3.90;;
64500;SDS011;50874;24.150;-110.320;2023-08-31T02:47:43;6.50;;;3.78;;
64500;SDS011;50874;24.150;-110.320;2023-08-31T02:50:09;14.80;;;4.93;;
64500;SDS011;50874;24.150;-110.320;2023-08-31T02:52:36;72.40;;;9.90;;
64500;SDS011;50874;24.150;-110.320;2023-08-31T02:55:02;12.93;;;5.85;;
64500;SDS011;50874;24.150;-110.320;2023-08-31T02:57:29;19.63;;;5.68;;
64500;SDS011;50874;24.150;-110.320;2023-08-31T02:59:55;13.00;;;4.88;;
64500;SDS011;50874;24.150;-110.320;2023-08-31T03:02:22;29.85;;;5.30;;
64500;SDS011;50874;24.150;-110.320;2023-08-31T03:04:48;23.88;;;4.55;;
64500;SDS011;50874;24.150;-110.320;2023-08-31T03:07:15;17.83;;;3.95;;
64500;SDS011;50874;24.150;-110.320;2023-08-31T03:09:42;14.27;;;3.30;;
64500;SDS011;50874;24.150;-110.320;2023-08-31T03:12:08;17.30;;;4.80;;
64500;SDS011;50874;24.150;-110.320;2023-08-31T03:14:34;26.02;;;4.20;;
64500;SDS011;50874;24.150;-110.320;2023-08-31T03:17:01;18.08;;;3.60;;
64500;SDS011;50874;24.150;-110.320;2023-08-31T03:19:28;14.48;;;3.45;;
64500;SDS011;50874;24.150;-110.320;2023-08-31T03:21:54;32.15;;;5.93;;
64500;SDS011;50874;24.150;-110.320;2023-08-31T03:24:21;29.88;;;7.30;;
64500;SDS011;50874;24.150;-110.320;2023-08-31T03:26:48;38.80;;;6.85;;
64500;SDS011;50874;24.150;-110.320;2023-08-31T03:29:15;52.58;;;11.07;;
64500;SDS011;50874;24.150;-110.320;2023-08-31T03:31:41;37.80;;;7.97;;
64500;SDS011;50874;24.150;-110.320;2023-08-31T03:34:07;20.55;;;6.85;;
64500;SDS011;50874;24.150;-110.320;2023-08-31T03:36:34;33.97;;;6.80;;
64500;SDS011;50874;24.150;-110.320;2023-08-31T03:39:01;23.27;;;6.57;;
64500;SDS011;50874;24.150;-110.320;2023-08-31T03:41:27;23.70;;;6.13;;
64500;SDS011;50874;24.150;-110.320;2023-08-31T03:43:54;33.45;;;7.78;;
64500;SDS011;50874;24.150;-110.320;2023-08-31T03:46:20;18.45;;;5.68;;
64500;SDS011;50874;24.150;-110.320;2023-08-31T03:48:47;18.90;;;5.50;;
64500;SDS011;50874;24.150;-110.320;2023-08-31T03:51:13;17.25;;;6.28;;
64500;SDS011;50874;24.150;-110.320;2023-08-31T03:53:39;12.80;;;5.82;;
64500;SDS011;50874;24.150;-110.320;2023-08-31T03:56:06;11.52;;;5.97;;
64500;SDS011;50874;24.150;-110.320;2023-08-31T03:58:32;12.85;;;5.38;;
64500;SDS011;50874;24.150;-110.320;2023-08-31T04:00:59;11.57;;;4.88;;
64500;SDS011;50874;24.150;-110.320;2023-08-31T04:03:25;6.45;;;4.25;;
64500;SDS011;50874;24.150;-110.320;2023-08-31T04:05:55;7.05;;;3.78;;
64500;SDS011;50874;24.150;-110.320;2023-08-31T04:08:22;6.20;;;3.42;;
64500;SDS011;50874;24.150;-110.320;2023-08-31T04:10:48;8.18;;;3.92;;
64500;SDS011;50874;24.150;-110.320;2023-08-31T04:13:15;5.47;;;3.92;;
64500;SDS011;50874;24.150;-110.320;2023-08-31T04:15:41;6.28;;;3.65;;
64500;SDS011;50874;24.150;-110.320;2023-08-31T04:18:07;11.73;;;4.35;;
64500;SDS011;50874;24.150;-110.320;2023-08-31T04:20:34;16.73;;;5.90;;
64500;SDS011;50874;24.150;-110.320;2023-08-31T04:23:01;37.05;;;7.30;;
64500;SDS011;50874;24.150;-110.320;2023-08-31T04:25:28;34.97;;;6.00;;
64500;SDS011;50874;24.150;-110.320;2023-08-31T04:27:58;12.52;;;4.75;;
64500;SDS011;50874;24.150;-110.320;2023-08-31T04:30:24;15.48;;;4.53;;
64500;SDS011;50874;24.150;-110.320;2023-08-31T04:32:51;15.95;;;5.90;;
64500;SDS011;50874;24.150;-110.320;2023-08-31T04:35:18;17.77;;;6.85;;
64500;SDS011;50874;24.150;-110.320;2023-08-31T04:37:44;27.40;;;6.80;;
64500;SDS011;50874;24.150;-110.320;2023-08-31T04:40:12;14.50;;;4.70;;
64500;SDS011;50874;24.150;-110.320;2023-08-31T04:42:38;10.85;;;4.18;;
64500;SDS011;50874;24.150;-110.320;2023-08-31T04:45:05;8.48;;;3.65;;
64500;SDS011;50874;24.150;-110.320;2023-08-31T04:47:32;15.57;;;5.32;;
64500;SDS011;50874;24.150;-110.320;2023-08-31T04:49:59;17.77;;;5.05;;
64500;SDS011;50874;24.150;-110.320;2023-08-31T04:52:25;9.45;;;4.50;;
64500;SDS011;50874;24.150;-110.320;2023-08-31T04:54:51;8.00;;;4.30;;
64500;SDS011;50874;24.150;-110.320;2023-08-31T04:57:18;8.40;;;4.43;;
64500;SDS011;50874;24.150;-110.320;2023-08-31T04:59:45;10.13;;;5.28;;
64500;SDS011;50874;24.150;-110.320;2023-08-31T05:02:11;7.60;;;4.93;;
64500;SDS011;50874;24.150;-110.320;2023-08-31T05:04:38;9.02;;;4.88;;
64500;SDS011;50874;24.150;-110.320;2023-08-31T05:07:04;10.55;;;4.78;;
64500;SDS011;50874;24.150;-110.320;2023-08-31T05:09:31;11.35;;;4.38;;
64500;SDS011;50874;24.150;-110.320;2023-08-31T05:12:03;8.05;;;4.90;;
64500;SDS011;50874;24.150;-110.320;2023-08-31T05:14:30;7.63;;;4.57;;
64500;SDS011;50874;24.150;-110.320;2023-08-31T05:16:56;8.40;;;4.50;;
64500;SDS011;50874;24.150;-110.320;2023-08-31T05:19:22;8.80;;;5.63;;
64500;SDS011;50874;24.150;-110.320;2023-08-31T05:21:49;7.72;;;4.95;;
64500;SDS011;50874;24.150;-110.320;2023-08-31T05:24:16;7.72;;;4.28;;
64500;SDS011;50874;24.150;-110.320;2023-08-31T05:26:42;8.02;;;4.78;;
64500;SDS011;50874;24.150;-110.320;2023-08-31T05:29:09;5.20;;;3.75;;
64500;SDS011;50874;24.150;-110.320;2023-08-31T05:31:35;7.75;;;4.18;;
64500;SDS011;50874;24.150;-110.320;2023-08-31T05:34:02;4.70;;;3.42;;
64500;SDS011;50874;24.150;-110.320;2023-08-31T05:36:29;7.07;;;4.38;;
64500;SDS011;50874;24.150;-110.320;2023-08-31T05:38:55;6.30;;;4.32;;
64500;SDS011;50874;24.150;-110.320;2023-08-31T05:41:22;7.47;;;3.85;;
64500;SDS011;50874;24.150;-110.320;2023-08-31T05:43:48;4.93;;;3.65;;
64500;SDS011;50874;24.150;-110.320;2023-08-31T05:46:15;6.28;;;3.47;;
64500;SDS011;50874;24.150;-110.320;2023-08-31T05:48:41;5.30;;;3.08;;
64500;SDS011;50874;24.150;-110.320;2023-08-31T05:51:08;5.80;;;2.85;;
64500;SDS011;50874;24.150;-110.320;2023-08-31T05:53:34;3.90;;;2.83;;
64500;SDS011;50874;24.150;-110.320;2023-08-31T05:56:01;3.50;;;2.50;;
64500;SDS011;50874;24.150;-110.320;2023-08-31T05:58:33;4.90;;;2.78;;
64500;SDS011;50874;24.150;-110.320;2023-08-31T06:01:00;4.25;;;3.05;;
64500;SDS011;50874;24.150;-110.320;2023-08-31T06:03:27;4.25;;;2.53;;
64500;SDS011;50874;24.150;-110.320;2023-08-31T06:05:55;4.40;;;2.55;;
64500;SDS011;50874;24.150;-110.320;2023-08-31T06:08:22;6.53;;;2.95;;
64500;SDS011;50874;24.150;-110.320;2023-08-31T06:10:49;7.97;;;2.70;;
64500;SDS011;50874;24.150;-110.320;2023-08-31T06:13:16;3.28;;;2.97;;
64500;SDS011;50874;24.150;-110.320;2023-08-31T06:15:43;4.90;;;2.65;;
64500;SDS011;50874;24.150;-110.320;2023-08-31T06:18:12;4.57;;;2.97;;
64500;SDS011;50874;24.150;-110.320;2023-08-31T06:20:39;3.88;;;3.20;;
64500;SDS011;50874;24.150;-110.320;2023-08-31T06:23:05;5.63;;;3.60;;
64500;SDS011;50874;24.150;-110.320;2023-08-31T06:25:32;6.05;;;3.15;;
64500;SDS011;50874;24.150;-110.320;2023-08-31T06:27:58;4.60;;;2.92;;
64500;SDS011;50874;24.150;-110.320;2023-08-31T06:30:25;4.30;;;3.40;;
64500;SDS011;50874;24.150;-110.320;2023-08-31T06:32:51;6.07;;;3.38;;
64500;SDS011;50874;24.150;-110.320;2023-08-31T06:35:18;6.15;;;3.60;;
64500;SDS011;50874;24.150;-110.320;2023-08-31T06:37:45;4.90;;;3.53;;
64500;SDS011;50874;24.150;-110.320;2023-08-31T06:40:12;5.25;;;3.90;;
64500;SDS011;50874;24.150;-110.320;2023-08-31T06:42:38;5.97;;;3.92;;
64500;SDS011;50874;24.150;-110.320;2023-08-31T06:45:06;5.72;;;3.58;;
64500;SDS011;50874;24.150;-110.320;2023-08-31T06:47:33;6.13;;;3.08;;
64500;SDS011;50874;24.150;-110.320;2023-08-31T06:50:00;6.82;;;4.10;;
64500;SDS011;50874;24.150;-110.320;2023-08-31T06:52:28;4.55;;;3.65;;
64500;SDS011;50874;24.150;-110.320;2023-08-31T06:54:55;5.47;;;3.88;;
64500;SDS011;50874;24.150;-110.320;2023-08-31T06:57:25;6.47;;;3.70;;
64500;SDS011;50874;24.150;-110.320;2023-08-31T06:59:52;4.07;;;3.38;;
64500;SDS011;50874;24.150;-110.320;2023-08-31T07:02:19;5.80;;;4.07;;
64500;SDS011;50874;24.150;-110.320;2023-08-31T07:04:47;5.65;;;3.67;;
64500;SDS011;50874;24.150;-110.320;2023-08-31T07:07:14;6.60;;;3.60;;
64500;SDS011;50874;24.150;-110.320;2023-08-31T07:09:43;4.72;;;3.50;;
64500;SDS011;50874;24.150;-110.320;2023-08-31T07:12:11;5.38;;;3.55;;
64500;SDS011;50874;24.150;-110.320;2023-08-31T07:14:37;4.82;;;3.35;;
64500;SDS011;50874;24.150;-110.320;2023-08-31T07:17:04;5.07;;;3.65;;
64500;SDS011;50874;24.150;-110.320;2023-08-31T07:19:30;6.70;;;4.30;;
64500;SDS011;50874;24.150;-110.320;2023-08-31T07:21:57;5.38;;;3.60;;
64500;SDS011;50874;24.150;-110.320;2023-08-31T07:24:24;4.72;;;3.72;;
64500;SDS011;50874;24.150;-110.320;2023-08-31T07:26:52;5.60;;;3.83;;
64500;SDS011;50874;24.150;-110.320;2023-08-31T07:29:18;4.63;;;3.60;;
64500;SDS011;50874;24.150;-110.320;2023-08-31T07:31:44;5.45;;;3.92;;
64500;SDS011;50874;24.150;-110.320;2023-08-31T07:34:11;5.47;;;3.67;;
64500;SDS011;50874;24.150;-110.320;2023-08-31T07:36:38;5.50;;;4.18;;
64500;SDS011;50874;24.150;-110.320;2023-08-31T07:39:05;7.70;;;3.97;;
64500;SDS011;50874;24.150;-110.320;2023-08-31T07:41:32;5.35;;;3.88;;
64500;SDS011;50874;24.150;-110.320;2023-08-31T07:43:58;6.07;;;4.40;;
64500;SDS011;50874;24.150;-110.320;2023-08-31T07:46:25;5.88;;;4.50;;
64500;SDS011;50874;24.150;-110.320;2023-08-31T07:48:51;6.43;;;4.60;;
64500;SDS011;50874;24.150;-110.320;2023-08-31T07:51:18;5.57;;;4.43;;
64500;SDS011;50874;24.150;-110.320;2023-08-31T07:53:48;4.55;;;3.78;;
64500;SDS011;50874;24.150;-110.320;2023-08-31T07:56:15;6.65;;;4.32;;
64500;SDS011;50874;24.150;-110.320;2023-08-31T07:58:41;7.20;;;4.60;;
64500;SDS011;50874;24.150;-110.320;2023-08-31T08:01:08;6.72;;;4.68;;
64500;SDS011;50874;24.150;-110.320;2023-08-31T08:03:34;5.72;;;4.22;;
64500;SDS011;50874;24.150;-110.320;2023-08-31T08:06:01;10.20;;;4.90;;
64500;SDS011;50874;24.150;-110.320;2023-08-31T08:08:28;5.75;;;4.03;;
64500;SDS011;50874;24.150;-110.320;2023-08-31T08:10:55;7.00;;;4.20;;
64500;SDS011;50874;24.150;-110.320;2023-08-31T08:13:21;5.82;;;4.25;;
64500;SDS011;50874;24.150;-110.320;2023-08-31T08:15:48;7.18;;;4.60;;
64500;SDS011;50874;24.150;-110.320;2023-08-31T08:18:15;6.43;;;4.78;;
64500;SDS011;50874;24.150;-110.320;2023-08-31T08:20:41;6.22;;;4.53;;
64500;SDS011;50874;24.150;-110.320;2023-08-31T08:23:07;11.95;;;5.45;;
64500;SDS011;50874;24.150;-110.320;2023-08-31T08:25:34;9.75;;;5.47;;
64500;SDS011;50874;24.150;-110.320;2023-08-31T08:28:00;6.15;;;4.47;;
64500;SDS011;50874;24.150;-110.320;2023-08-31T08:30:28;8.50;;;5.45;;
64500;SDS011;50874;24.150;-110.320;2023-08-31T08:32:55;9.77;;;5.28;;
64500;SDS011;50874;24.150;-110.320;2023-08-31T08:35:22;8.77;;;5.53;;
64500;SDS011;50874;24.150;-110.320;2023-08-31T08:37:49;7.32;;;5.72;;
64500;SDS011;50874;24.150;-110.320;2023-08-31T08:40:15;8.18;;;5.75;;
64500;SDS011;50874;24.150;-110.320;2023-08-31T08:42:42;6.85;;;5.72;;
64500;SDS011;50874;24.150;-110.320;2023-08-31T08:45:13;9.27;;;6.47;;
64500;SDS011;50874;24.150;-110.320;2023-08-31T08:47:43;8.40;;;6.15;;
64500;SDS011;50874;24.150;-110.320;2023-08-31T08:50:10;7.43;;;5.75;;
64500;SDS011;50874;24.150;-110.320;2023-08-31T08:52:38;8.15;;;6.18;;
64500;SDS011;50874;24.150;-110.320;2023-08-31T08:55:07;10.30;;;6.70;;
64500;SDS011;50874;24.150;-110.320;2023-08-31T08:57:34;8.55;;;6.10;;
64500;SDS011;50874;24.150;-110.320;2023-08-31T09:00:01;6.22;;;5.07;;
64500;SDS011;50874;24.150;-110.320;2023-08-31T09:02:28;7.10;;;5.63;;
64500;SDS011;50874;24.150;-110.320;2023-08-31T09:04:55;7.68;;;4.95;;
64500;SDS011;50874;24.150;-110.320;2023-08-31T09:07:21;6.15;;;4.90;;
64500;SDS011;50874;24.150;-110.320;2023-08-31T09:09:49;5.65;;;4.45;;
64500;SDS011;50874;24.150;-110.320;2023-08-31T09:12:17;7.15;;;4.72;;
64500;SDS011;50874;24.150;-110.320;2023-08-31T09:14:56;7.55;;;5.05;;
64500;SDS011;50874;24.150;-110.320;2023-08-31T09:17:26;6.75;;;5.00;;
64500;SDS011;50874;24.150;-110.320;2023-08-31T09:20:02;8.07;;;4.97;;
64500;SDS011;50874;24.150;-110.320;2023-08-31T09:22:29;8.02;;;4.82;;
64500;SDS011;50874;24.150;-110.320;2023-08-31T09:24:57;8.13;;;4.88;;
64500;SDS011;50874;24.150;-110.320;2023-08-31T09:27:23;4.50;;;4.07;;
64500;SDS011;50874;24.150;-110.320;2023-08-31T09:29:50;5.47;;;4.45;;
64500;SDS011;50874;24.150;-110.320;2023-08-31T09:32:19;6.47;;;4.57;;
64500;SDS011;50874;24.150;-110.320;2023-08-31T09:34:47;5.93;;;4.00;;
64500;SDS011;50874;24.150;-110.320;2023-08-31T09:37:17;6.50;;;4.35;;
64500;SDS011;50874;24.150;-110.320;2023-08-31T09:39:43;5.57;;;4.78;;
64500;SDS011;50874;24.150;-110.320;2023-08-31T09:42:10;4.85;;;4.15;;
64500;SDS011;50874;24.150;-110.320;2023-08-31T09:44:40;4.63;;;3.70;;
64500;SDS011;50874;24.150;-110.320;2023-08-31T09:47:08;9.23;;;3.50;;
64500;SDS011;50874;24.150;-110.320;2023-08-31T09:49:35;6.75;;;4.57;;
64500;SDS011;50874;24.150;-110.320;2023-08-31T09:52:04;5.40;;;4.22;;
64500;SDS011;50874;24.150;-110.320;2023-08-31T09:54:33;4.70;;;3.67;;
64500;SDS011;50874;24.150;-110.320;2023-08-31T09:57:01;5.68;;;4.13;;
64500;SDS011;50874;24.150;-110.320;2023-08-31T09:59:28;5.65;;;4.05;;
64500;SDS011;50874;24.150;-110.320;2023-08-31T10:01:55;5.18;;;4.00;;
64500;SDS011;50874;24.150;-110.320;2023-08-31T10:04:22;6.15;;;4.35;;
64500;SDS011;50874;24.150;-110.320;2023-08-31T10:06:49;7.28;;;4.80;;
64500;SDS011;50874;24.150;-110.320;2023-08-31T10:09:17;7.40;;;4.15;;
64500;SDS011;50874;24.150;-110.320;2023-08-31T10:11:44;9.00;;;5.15;;
64500;SDS011;50874;24.150;-110.320;2023-08-31T10:14:12;5.78;;;4.38;;
64500;SDS011;50874;24.150;-110.320;2023-08-31T10:16:39;10.25;;;4.78;;
64500;SDS011;50874;24.150;-110.320;2023-08-31T10:19:06;5.93;;;4.50;;
64500;SDS011;50874;24.150;-110.320;2023-08-31T10:21:33;7.40;;;4.40;;
64500;SDS011;50874;24.150;-110.320;2023-08-31T10:23:59;6.95;;;4.47;;
64500;SDS011;50874;24.150;-110.320;2023-08-31T10:26:30;8.50;;;5.00;;
64500;SDS011;50874;24.150;-110.320;2023-08-31T10:28:57;9.40;;;5.47;;
64500;SDS011;50874;24.150;-110.320;2023-08-31T10:31:33;7.63;;;4.95;;
64500;SDS011;50874;24.150;-110.320;2023-08-31T10:34:01;7.10;;;5.32;;
64500;SDS011;50874;24.150;-110.320;2023-08-31T10:36:39;7.68;;;6.85;;
64500;SDS011;50874;24.150;-110.320;2023-08-31T10:39:12;9.13;;;6.75;;
64500;SDS011;50874;24.150;-110.320;2023-08-31T10:41:41;9.57;;;6.83;;
64500;SDS011;50874;24.150;-110.320;2023-08-31T10:44:20;6.80;;;6.00;;
64500;SDS011;50874;24.150;-110.320;2023-08-31T10:46:48;8.30;;;5.95;;
64500;SDS011;50874;24.150;-110.320;2023-08-31T10:49:17;8.00;;;5.68;;
64500;SDS011;50874;24.150;-110.320;2023-08-31T10:51:48;7.00;;;5.90;;
64500;SDS011;50874;24.150;-110.320;2023-08-31T10:54:21;9.05;;;6.57;;
64500;SDS011;50874;24.150;-110.320;2023-08-31T11:02:30;9.75;;;6.40;;
64500;SDS011;50874;24.150;-110.320;2023-08-31T11:07:29;8.07;;;6.55;;
64500;SDS011;50874;24.150;-110.320;2023-08-31T11:10:13;8.02;;;6.70;;
64500;SDS011;50874;24.150;-110.320;2023-08-31T11:12:46;11.48;;;7.05;;
64500;SDS011;50874;24.150;-110.320;2023-08-31T11:15:15;9.25;;;6.65;;
64500;SDS011;50874;24.150;-110.320;2023-08-31T11:17:52;9.13;;;6.40;;
64500;SDS011;50874;24.150;-110.320;2023-08-31T11:20:20;11.52;;;6.88;;
64500;SDS011;50874;24.150;-110.320;2023-08-31T11:22:53;9.17;;;6.53;;
64500;SDS011;50874;24.150;-110.320;2023-08-31T11:25:20;9.90;;;6.22;;
64500;SDS011;50874;24.150;-110.320;2023-08-31T11:27:59;8.32;;;6.40;;
64500;SDS011;50874;24.150;-110.320;2023-08-31T11:30:29;6.55;;;5.65;;
64500;SDS011;50874;24.150;-110.320;2023-08-31T11:33:08;7.40;;;5.85;;
64500;SDS011;50874;24.150;-110.320;2023-08-31T11:35:40;12.02;;;6.22;;
64500;SDS011;50874;24.150;-110.320;2023-08-31T11:38:10;8.27;;;6.38;;
64500;SDS011;50874;24.150;-110.320;2023-08-31T11:40:37;8.68;;;6.50;;
64500;SDS011;50874;24.150;-110.320;2023-08-31T11:43:04;8.07;;;6.47;;
64500;SDS011;50874;24.150;-110.320;2023-08-31T11:45:34;9.43;;;6.38;;
64500;SDS011;50874;24.150;-110.320;2023-08-31T11:48:02;6.60;;;5.75;;
64500;SDS011;50874;24.150;-110.320;2023-08-31T11:50:29;6.35;;;5.47;;
64500;SDS011;50874;24.150;-110.320;2023-08-31T11:52:56;6.72;;;5.35;;
64500;SDS011;50874;24.150;-110.320;2023-08-31T11:55:22;5.55;;;5.00;;
64500;SDS011;50874;24.150;-110.320;2023-08-31T11:57:53;11.73;;;5.45;;
64500;SDS011;50874;24.150;-110.320;2023-08-31T12:00:21;9.68;;;5.03;;
64500;SDS011;50874;24.150;-110.320;2023-08-31T12:02:57;5.55;;;4.38;;
64500;SDS011;50874;24.150;-110.320;2023-08-31T12:05:27;8.55;;;5.38;;
64500;SDS011;50874;24.150;-110.320;2023-08-31T12:07:54;6.90;;;5.05;;
64500;SDS011;50874;24.150;-110.320;2023-08-31T12:10:23;6.82;;;5.10;;
64500;SDS011;50874;24.150;-110.320;2023-08-31T12:12:51;8.65;;;5.40;;
64500;SDS011;50874;24.150;-110.320;2023-08-31T12:15:18;5.97;;;4.40;;
64500;SDS011;50874;24.150;-110.320;2023-08-31T12:17:47;7.15;;;5.28;;
64500;SDS011;50874;24.150;-110.320;2023-08-31T12:20:24;7.80;;;5.70;;
64500;SDS011;50874;24.150;-110.320;2023-08-31T12:22:52;7.30;;;5.43;;
64500;SDS011;50874;24.150;-110.320;2023-08-31T12:25:21;6.68;;;4.72;;
64500;SDS011;50874;24.150;-110.320;2023-08-31T12:27:48;5.07;;;4.43;;
64500;SDS011;50874;24.150;-110.320;2023-08-31T12:30:15;5.50;;;4.35;;
64500;SDS011;50874;24.150;-110.320;2023-08-31T12:32:41;6.28;;;4.25;;
64500;SDS011;50874;24.150;-110.320;2023-08-31T12:35:08;7.85;;;4.63;;
64500;SDS011;50874;24.150;-110.320;2023-08-31T12:37:36;9.38;;;4.40;;
64500;SDS011;50874;24.150;-110.320;2023-08-31T12:40:03;6.35;;;4.30;;
64500;SDS011;50874;24.150;-110.320;2023-08-31T12:42:32;6.63;;;4.22;;
64500;SDS011;50874;24.150;-110.320;2023-08-31T12:44:58;5.90;;;4.00;;
64500;SDS011;50874;24.150;-110.320;2023-08-31T12:47:25;6.80;;;4.38;;
64500;SDS011;50874;24.150;-110.320;2023-08-31T12:49:51;7.18;;;4.70;;
64500;SDS011;50874;24.150;-110.320;2023-08-31T12:52:17;7.63;;;4.38;;
64500;SDS011;50874;24.150;-110.320;2023-08-31T12:54:44;5.65;;;3.95;;
64500;SDS011;50874;24.150;-110.320;2023-08-31T12:57:10;5.00;;;3.88;;
64500;SDS011;50874;24.150;-110.320;2023-08-31T12:59:37;4.93;;;4.15;;
64500;SDS011;50874;24.150;-110.320;2023-08-31T13:02:03;6.30;;;4.60;;
64500;SDS011;50874;24.150;-110.320;2023-08-31T13:04:35;7.45;;;4.45;;
64500;SDS011;50874;24.150;-110.320;2023-08-31T13:07:02;9.80;;;4.50;;
64500;SDS011;50874;24.150;-110.320;2023-08-31T13:09:29;7.18;;;4.63;;
64500;SDS011;50874;24.150;-110.320;2023-08-31T13:11:56;5.03;;;4.22;;
64500;SDS011;50874;24.150;-110.320;2023-08-31T13:14:23;6.75;;;5.20;;
64500;SDS011;50874;24.150;-110.320;2023-08-31T13:16:49;6.43;;;4.40;;
64500;SDS011;50874;24.150;-110.320;2023-08-31T13:19:15;9.70;;;4.50;;
64500;SDS011;50874;24.150;-110.320;2023-08-31T13:21:42;8.30;;;4.90;;
64500;SDS011;50874;24.150;-110.320;2023-08-31T13:24:09;9.10;;;4.60;;
64500;SDS011;50874;24.150;-110.320;2023-08-31T13:26:35;11.30;;;5.13;;
64500;SDS011;50874;24.150;-110.320;2023-08-31T13:29:01;8.15;;;4.90;;
64500;SDS011;50874;24.150;-110.320;2023-08-31T13:31:30;6.78;;;5.22;;
64500;SDS011;50874;24.150;-110.320;2023-08-31T13:33:57;9.05;;;4.70;;
64500;SDS011;50874;24.150;-110.320;2023-08-31T13:36:23;10.85;;;5.30;;
64500;SDS011;50874;24.150;-110.320;2023-08-31T13:38:49;12.70;;;5.03;;
64500;SDS011;50874;24.150;-110.320;2023-08-31T13:41:16;6.75;;;4.90;;
64500;SDS011;50874;24.150;-110.320;2023-08-31T13:43:42;8.57;;;5.40;;
64500;SDS011;50874;24.150;-110.320;2023-08-31T13:46:09;12.00;;;5.15;;
64500;SDS011;50874;24.150;-110.320;2023-08-31T13:48:36;9.45;;;5.80;;
64500;SDS011;50874;24.150;-110.320;2023-08-31T13:51:03;8.38;;;5.38;;
64500;SDS011;50874;24.150;-110.320;2023-08-31T13:53:30;9.10;;;5.40;;
64500;SDS011;50874;24.150;-110.320;2023-08-31T13:55:56;11.77;;;6.25;;
64500;SDS011;50874;24.150;-110.320;2023-08-31T13:58:23;10.73;;;5.32;;
64500;SDS011;50874;24.150;-110.320;2023-08-31T14:00:49;9.30;;;5.63;;
64500;SDS011;50874;24.150;-110.320;2023-08-31T14:03:16;12.40;;;5.85;;
64500;SDS011;50874;24.150;-110.320;2023-08-31T14:05:42;10.40;;;5.80;;
64500;SDS011;50874;24.150;-110.320;2023-08-31T14:08:12;11.38;;;6.20;;
64500;SDS011;50874;24.150;-110.320;2023-08-31T14:10:39;9.25;;;5.80;;
64500;SDS011;50874;24.150;-110.320;2023-08-31T14:13:06;7.70;;;5.47;;
64500;SDS011;50874;24.150;-110.320;2023-08-31T14:15:33;10.00;;;6.28;;
64500;SDS011;50874;24.150;-110.320;2023-08-31T14:17:59;7.63;;;5.63;;
64500;SDS011;50874;24.150;-110.320;2023-08-31T14:20:26;9.30;;;5.75;;
64500;SDS011;50874;24.150;-110.320;2023-08-31T14:22:52;7.78;;;5.40;;
64500;SDS011;50874;24.150;-110.320;2023-08-31T14:25:18;11.82;;;5.60;;